createdAt,value
2018-11-06T00:02:14.835Z,46.92
2018-11-06T00:04:47.891Z,49.53
2018-11-06T00:07:15.679Z,44.23
2018-11-06T00:09:43.630Z,46.53
2018-11-06T00:12:11.166Z,45.98
2018-11-06T00:14:39.391Z,46.75
2018-11-06T00:17:06.886Z,47.15
2018-11-06T00:19:34.718Z,47.62
2018-11-06T00:22:02.258Z,46.55
2018-11-06T00:24:29.915Z,44.80
2018-11-06T00:26:57.451Z,44.15
2018-11-06T00:29:25.167Z,43.38
2018-11-06T00:31:53.112Z,44.77
2018-11-06T00:34:21.075Z,43.87
2018-11-06T00:36:49.687Z,46.05
2018-11-06T00:39:18.379Z,46.63
2018-11-06T00:41:45.992Z,46.98
2018-11-06T00:44:13.737Z,43.28
2018-11-06T00:46:41.647Z,51.63
2018-11-06T00:49:09.137Z,49.33
2018-11-06T00:51:36.819Z,43.30
2018-11-06T00:54:04.694Z,48.28
2018-11-06T00:56:33.047Z,47.90
2018-11-06T00:59:00.689Z,47.50
2018-11-06T01:01:28.861Z,45.20
2018-11-06T01:04:01.738Z,46.48
2018-11-06T01:06:30.242Z,46.68
2018-11-06T01:08:57.761Z,42.17
2018-11-06T01:11:25.761Z,39.00
2018-11-06T01:13:53.575Z,37.75
2018-11-06T01:16:22.022Z,42.75
2018-11-06T01:18:50.747Z,43.40
2018-11-06T01:21:18.655Z,43.78
2018-11-06T01:23:46.586Z,43.42
2018-11-06T01:26:14.068Z,45.67
2018-11-06T01:28:41.802Z,42.90
2018-11-06T01:31:09.635Z,39.33
2018-11-06T01:33:37.399Z,40.20
2018-11-06T01:36:05.394Z,39.25
2018-11-06T01:38:33.359Z,43.38
2018-11-06T01:41:01.290Z,40.38
2018-11-06T01:43:28.732Z,42.65
2018-11-06T01:45:56.650Z,45.55
2018-11-06T01:48:24.837Z,45.70
2018-11-06T01:50:52.387Z,37.90
2018-11-06T01:53:20.316Z,41.08
2018-11-06T01:55:48.121Z,41.90
2018-11-06T01:58:15.707Z,39.30
2018-11-06T02:00:43.363Z,40.58
2018-11-06T02:03:10.812Z,39.75
2018-11-06T02:05:38.298Z,39.25
2018-11-06T02:08:05.833Z,41.42
2018-11-06T02:10:33.581Z,45.43
2018-11-06T02:13:01.473Z,39.35
2018-11-06T02:15:28.957Z,38.35
2018-11-06T02:17:56.782Z,41.08
2018-11-06T02:20:24.540Z,39.92
2018-11-06T02:22:52.437Z,41.18
2018-11-06T02:25:20.375Z,40.30
2018-11-06T02:27:48.237Z,42.45
2018-11-06T02:30:17.799Z,43.68
2018-11-06T02:32:46.565Z,46.40
2018-11-06T02:35:14.129Z,42.48
2018-11-06T02:37:42.091Z,38.42
2018-11-06T02:40:11.096Z,40.70
2018-11-06T02:42:39.268Z,42.93
2018-11-06T02:45:07.356Z,43.35
2018-11-06T02:47:34.946Z,42.05
2018-11-06T02:50:02.520Z,45.38
2018-11-06T02:52:30.313Z,46.53
2018-11-06T02:54:58.274Z,41.70
2018-11-06T02:57:25.771Z,43.95
2018-11-06T02:59:53.656Z,42.55
2018-11-06T03:02:21.513Z,42.35
2018-11-06T03:04:48.978Z,43.90
2018-11-06T03:07:17.088Z,42.23
2018-11-06T03:09:44.870Z,44.55
2018-11-06T03:12:12.310Z,42.08
2018-11-06T03:14:40.418Z,42.58
2018-11-06T03:17:08.404Z,41.90
2018-11-06T03:19:35.923Z,41.60
2018-11-06T03:22:03.499Z,44.20
2018-11-06T03:24:32.195Z,43.75
2018-11-06T03:27:00.740Z,42.50
2018-11-06T03:29:28.482Z,43.38
2018-11-06T03:31:56.103Z,39.18
2018-11-06T03:34:23.526Z,41.92
2018-11-06T03:36:51.458Z,42.70
2018-11-06T03:39:19.522Z,41.05
2018-11-06T03:41:47.700Z,44.60
2018-11-06T03:44:15.141Z,45.35
2018-11-06T03:46:42.905Z,42.45
2018-11-06T03:49:10.748Z,39.25
2018-11-06T03:51:38.440Z,39.25
2018-11-06T03:54:05.961Z,41.60
2018-11-06T03:56:33.382Z,40.65
2018-11-06T03:59:01.053Z,42.90
2018-11-06T04:01:29.064Z,43.02
2018-11-06T04:03:56.853Z,42.15
2018-11-06T04:06:24.367Z,41.23
2018-11-06T04:08:51.973Z,41.20
2018-11-06T04:11:19.776Z,43.78
2018-11-06T04:13:47.587Z,39.88
2018-11-06T04:16:15.779Z,41.28
2018-11-06T04:18:43.712Z,42.88
2018-11-06T04:21:11.232Z,41.88
2018-11-06T04:23:38.739Z,42.65
2018-11-06T04:26:06.166Z,39.53
2018-11-06T04:28:34.111Z,39.40
2018-11-06T04:31:01.613Z,39.88
2018-11-06T04:33:29.499Z,40.70
2018-11-06T04:35:57.296Z,42.00
2018-11-06T04:38:24.868Z,40.70
2018-11-06T04:40:52.592Z,36.77
2018-11-06T04:43:20.122Z,40.80
2018-11-06T04:45:47.570Z,38.73
2018-11-06T04:48:15.613Z,42.38
2018-11-06T04:50:43.526Z,40.05
2018-11-06T04:53:11.059Z,39.42
2018-11-06T04:55:38.997Z,39.98
2018-11-06T04:58:06.815Z,36.70
2018-11-06T05:00:34.380Z,41.02
2018-11-06T05:03:02.198Z,37.55
2018-11-06T05:05:29.594Z,36.30
2018-11-06T05:07:57.423Z,39.83
2018-11-06T05:10:24.896Z,40.45
2018-11-06T05:12:52.861Z,39.85
2018-11-06T05:15:20.337Z,42.00
2018-11-06T05:17:48.119Z,38.80
2018-11-06T05:20:20.660Z,38.95
2018-11-06T05:22:48.842Z,40.90
2018-11-06T05:25:17.071Z,39.53
2018-11-06T05:27:44.575Z,103.75
2018-11-06T05:30:12.950Z,44.73
2018-11-06T05:32:41.983Z,40.78
2018-11-06T05:35:10.202Z,39.45
2018-11-06T05:37:41.895Z,37.95
2018-11-06T05:40:15.187Z,42.15
2018-11-06T05:42:42.734Z,41.25
2018-11-06T05:45:10.360Z,36.88
2018-11-06T05:47:37.870Z,40.03
2018-11-06T05:50:05.739Z,39.45
2018-11-06T05:52:33.510Z,36.35
2018-11-06T05:55:01.165Z,40.78
2018-11-06T05:57:28.769Z,40.40
2018-11-06T05:59:56.393Z,39.18
2018-11-06T06:02:24.067Z,37.30
2018-11-06T06:04:51.940Z,38.05
2018-11-06T06:07:19.560Z,35.52
2018-11-06T06:09:47.346Z,37.95
2018-11-06T06:12:15.085Z,39.55
2018-11-06T06:14:42.812Z,37.85
2018-11-06T06:17:10.380Z,37.95
2018-11-06T06:19:38.082Z,36.28
2018-11-06T06:22:05.975Z,35.45
2018-11-06T06:24:34.098Z,35.73
2018-11-06T06:27:07.372Z,38.20
2018-11-06T06:29:34.892Z,36.38
2018-11-06T06:32:02.782Z,38.23
2018-11-06T06:34:30.370Z,37.48
2018-11-06T06:36:58.060Z,37.03
2018-11-06T06:39:25.556Z,37.42
2018-11-06T06:41:53.059Z,34.30
2018-11-06T06:44:20.803Z,36.03
2018-11-06T06:46:48.688Z,36.17
2018-11-06T06:49:17.026Z,36.20
2018-11-06T06:51:44.932Z,35.52
2018-11-06T06:54:12.570Z,33.60
2018-11-06T06:56:40.601Z,36.28
2018-11-06T06:59:08.519Z,36.30
2018-11-06T07:01:36.384Z,35.58
2018-11-06T07:04:03.951Z,35.10
2018-11-06T07:06:31.751Z,36.55
2018-11-06T07:08:59.477Z,36.93
2018-11-06T07:11:27.040Z,33.50
2018-11-06T07:13:54.685Z,34.83
2018-11-06T07:16:22.180Z,34.65
2018-11-06T07:18:49.786Z,33.75
2018-11-06T07:21:17.355Z,34.55
2018-11-06T07:23:45.238Z,33.67
2018-11-06T07:26:12.674Z,33.70
2018-11-06T07:28:40.471Z,34.20
2018-11-06T07:31:08.063Z,31.30
2018-11-06T07:33:35.948Z,31.60
2018-11-06T07:36:03.698Z,31.40
2018-11-06T07:38:31.263Z,32.75
2018-11-06T07:40:59.359Z,33.02
2018-11-06T07:43:27.807Z,30.43
2018-11-06T07:45:55.788Z,30.27
2018-11-06T07:48:23.847Z,29.65
2018-11-06T07:50:52.142Z,28.47
2018-11-06T07:53:20.865Z,29.48
2018-11-06T07:55:48.647Z,29.95
2018-11-06T07:58:16.690Z,28.42
2018-11-06T08:00:44.980Z,29.80
2018-11-06T08:03:12.502Z,28.07
2018-11-06T08:05:39.925Z,28.45
2018-11-06T08:08:07.977Z,28.12
2018-11-06T08:10:35.996Z,27.20
2018-11-06T08:13:03.538Z,29.32
2018-11-06T08:15:31.323Z,27.80
2018-11-06T08:17:59.141Z,28.62
2018-11-06T08:20:27.063Z,27.02
2018-11-06T08:22:54.585Z,27.73
2018-11-06T08:25:22.138Z,27.30
2018-11-06T08:27:49.712Z,27.17
2018-11-06T08:30:17.415Z,26.45
2018-11-06T08:32:45.600Z,26.50
2018-11-06T08:35:14.978Z,26.27
2018-11-06T08:37:42.774Z,27.47
2018-11-06T08:40:12.027Z,27.97
2018-11-06T08:42:39.593Z,24.90
2018-11-06T08:45:08.048Z,25.30
2018-11-06T08:47:35.554Z,27.13
2018-11-06T08:50:03.079Z,24.63
2018-11-06T08:52:30.622Z,26.17
2018-11-06T08:54:58.342Z,23.23
2018-11-06T08:57:25.825Z,25.13
2018-11-06T08:59:53.257Z,24.73
2018-11-06T09:02:21.171Z,25.43
2018-11-06T09:04:48.575Z,25.37
2018-11-06T09:07:16.439Z,25.67
2018-11-06T09:09:43.944Z,25.43
2018-11-06T09:12:11.485Z,23.80
2018-11-06T09:14:39.003Z,25.70
2018-11-06T09:17:06.788Z,24.10
2018-11-06T09:19:34.901Z,24.90
2018-11-06T09:22:02.402Z,24.03
2018-11-06T09:24:29.931Z,25.93
2018-11-06T09:26:57.763Z,24.67
2018-11-06T09:29:25.242Z,22.47
2018-11-06T09:31:52.790Z,23.90
2018-11-06T09:34:20.241Z,25.27
2018-11-06T09:36:47.827Z,24.27
2018-11-06T09:39:15.711Z,24.20
2018-11-06T09:41:44.299Z,22.53
2018-11-06T09:44:12.002Z,24.77
2018-11-06T09:46:39.889Z,25.33
2018-11-06T09:49:08.498Z,24.70
2018-11-06T09:51:36.409Z,26.83
2018-11-06T09:54:03.946Z,23.77
2018-11-06T09:56:31.719Z,24.17
2018-11-06T09:58:59.538Z,24.77
2018-11-06T10:01:27.334Z,23.87
2018-11-06T10:03:54.806Z,23.90
2018-11-06T10:06:22.848Z,23.90
2018-11-06T10:08:50.505Z,23.57
2018-11-06T10:11:17.968Z,23.57
2018-11-06T10:13:45.702Z,24.63
2018-11-06T10:16:13.491Z,23.83
2018-11-06T10:18:41.035Z,24.53
2018-11-06T10:21:08.655Z,22.50
2018-11-06T10:23:36.500Z,22.30
2018-11-06T10:26:03.968Z,24.17
2018-11-06T10:28:31.481Z,22.57
2018-11-06T10:30:59.259Z,22.97
2018-11-06T10:33:26.760Z,22.93
2018-11-06T10:35:54.652Z,22.17
2018-11-06T10:38:22.091Z,23.50
2018-11-06T10:40:49.891Z,22.87
2018-11-06T10:43:17.633Z,23.30
2018-11-06T10:45:45.058Z,24.40
2018-11-06T10:48:12.752Z,21.47
2018-11-06T10:50:40.456Z,23.70
2018-11-06T10:53:08.011Z,22.50
2018-11-06T10:55:35.684Z,23.00
2018-11-06T10:58:03.269Z,21.90
2018-11-06T11:00:36.215Z,22.37
2018-11-06T11:03:09.374Z,22.93
2018-11-06T11:05:37.479Z,21.63
2018-11-06T11:08:04.915Z,20.53
2018-11-06T11:10:32.359Z,22.20
2018-11-06T11:13:00.449Z,21.70
2018-11-06T11:15:28.026Z,22.83
2018-11-06T11:17:55.470Z,23.80
2018-11-06T11:20:22.974Z,22.10
2018-11-06T11:22:51.277Z,23.50
2018-11-06T11:25:19.476Z,24.20
2018-11-06T11:27:47.628Z,21.97
2018-11-06T11:30:16.020Z,23.23
2018-11-06T11:32:45.024Z,21.10
2018-11-06T11:35:13.171Z,23.17
2018-11-06T11:37:40.716Z,22.33
2018-11-06T11:40:08.943Z,21.90
2018-11-06T11:42:36.834Z,21.83
2018-11-06T11:45:04.773Z,22.17
2018-11-06T11:47:32.210Z,22.47
2018-11-06T11:49:59.888Z,20.70
2018-11-06T11:52:27.327Z,21.70
2018-11-06T11:54:54.743Z,21.67
2018-11-06T11:57:23.057Z,22.60
2018-11-06T11:59:51.148Z,22.47
2018-11-06T12:02:20.139Z,20.60
2018-11-06T12:04:48.406Z,21.57
2018-11-06T12:07:15.886Z,20.87
2018-11-06T12:09:43.307Z,18.93
2018-11-06T12:12:10.851Z,19.33
2018-11-06T12:14:38.399Z,19.60
2018-11-06T12:17:05.860Z,18.23
2018-11-06T12:19:33.616Z,19.80
2018-11-06T12:22:01.179Z,17.17
2018-11-06T12:24:29.253Z,18.93
2018-11-06T12:26:57.015Z,18.43
2018-11-06T12:29:24.945Z,19.00
2018-11-06T12:31:52.909Z,19.17
2018-11-06T12:34:20.359Z,18.37
2018-11-06T12:36:47.877Z,17.80
2018-11-06T12:39:15.852Z,18.80
2018-11-06T12:41:43.474Z,20.60
2018-11-06T12:44:11.174Z,21.23
2018-11-06T12:46:38.905Z,20.27
2018-11-06T12:49:06.934Z,20.53
2018-11-06T12:51:34.431Z,21.80
2018-11-06T12:54:01.915Z,21.90
2018-11-06T12:56:29.368Z,22.63
2018-11-06T12:58:57.034Z,21.80
2018-11-06T13:01:24.964Z,22.03
2018-11-06T13:03:52.696Z,21.63
2018-11-06T13:06:20.151Z,20.40
2018-11-06T13:08:47.681Z,21.70
2018-11-06T13:11:15.401Z,21.90
2018-11-06T13:13:43.239Z,23.40
2018-11-06T13:16:10.767Z,24.15
2018-11-06T13:18:38.908Z,24.05
2018-11-06T13:21:06.659Z,22.95
2018-11-06T13:23:34.157Z,24.80
2018-11-06T13:26:02.167Z,25.95
2018-11-06T13:28:29.648Z,24.02
2018-11-06T13:30:58.068Z,24.43
2018-11-06T13:33:25.613Z,26.42
2018-11-06T13:35:53.332Z,25.48
2018-11-06T13:38:21.037Z,25.77
2018-11-06T13:40:48.964Z,25.05
2018-11-06T13:43:16.607Z,25.37
2018-11-06T13:45:44.445Z,24.92
2018-11-06T13:48:11.888Z,24.92
2018-11-06T13:50:43.261Z,25.95
2018-11-06T13:53:11.008Z,25.27
2018-11-06T13:55:39.416Z,25.70
2018-11-06T13:58:06.851Z,26.62
2018-11-06T14:00:34.314Z,26.45
2018-11-06T14:03:02.112Z,26.45
2018-11-06T14:05:29.840Z,28.35
2018-11-06T14:07:57.759Z,27.70
2018-11-06T14:10:25.406Z,28.25
2018-11-06T14:12:53.383Z,27.85
2018-11-06T14:15:21.225Z,28.25
2018-11-06T14:17:49.174Z,28.90
2018-11-06T14:20:17.340Z,27.20
2018-11-06T14:22:46.128Z,28.87
2018-11-06T14:25:13.807Z,27.07
2018-11-06T14:27:41.783Z,29.32
2018-11-06T14:30:11.198Z,30.00
2018-11-06T14:32:39.560Z,29.45
2018-11-06T14:35:07.795Z,29.23
2018-11-06T14:37:35.272Z,28.50
2018-11-06T14:40:03.689Z,29.30
2018-11-06T14:42:31.563Z,29.02
2018-11-06T14:44:58.998Z,28.60
2018-11-06T14:47:26.747Z,28.47
2018-11-06T14:49:54.804Z,30.00
2018-11-06T14:52:22.865Z,33.20
2018-11-06T14:54:51.339Z,35.43
2018-11-06T14:57:19.162Z,34.20
2018-11-06T14:59:46.907Z,36.20
2018-11-06T15:02:14.866Z,31.45
2018-11-06T15:04:42.654Z,33.23
2018-11-06T15:07:10.074Z,32.50
2018-11-06T15:09:37.800Z,32.23
2018-11-06T15:12:05.323Z,32.70
2018-11-06T15:14:33.025Z,30.75
2018-11-06T15:17:00.964Z,31.62
2018-11-06T15:19:28.375Z,30.88
2018-11-06T15:21:56.067Z,32.48
2018-11-06T15:24:24.009Z,29.92
2018-11-06T15:26:52.041Z,31.42
2018-11-06T15:29:19.566Z,31.97
2018-11-06T15:31:47.470Z,33.98
2018-11-06T15:34:15.528Z,30.55
2018-11-06T15:36:43.419Z,31.02
2018-11-06T15:39:11.308Z,30.68
2018-11-06T15:41:40.507Z,31.20
2018-11-06T15:44:07.969Z,32.30
2018-11-06T15:46:35.805Z,31.77
2018-11-06T15:49:03.892Z,32.60
2018-11-06T15:51:31.610Z,31.95
2018-11-06T15:53:59.175Z,31.73
2018-11-06T15:56:26.620Z,31.55
2018-11-06T15:58:54.804Z,29.70
2018-11-06T16:01:26.494Z,29.75
2018-11-06T16:03:54.219Z,30.65
2018-11-06T16:06:21.790Z,31.85
2018-11-06T16:08:49.442Z,31.70
2018-11-06T16:11:17.245Z,31.60
2018-11-06T16:13:44.826Z,30.72
2018-11-06T16:16:12.327Z,32.45
2018-11-06T16:18:39.800Z,32.50
2018-11-06T16:21:07.428Z,37.03
2018-11-06T16:23:35.275Z,33.15
2018-11-06T16:26:02.989Z,31.02
2018-11-06T16:28:31.500Z,32.28
2018-11-06T16:30:59.683Z,35.80
2018-11-06T16:33:27.628Z,34.83
2018-11-06T16:35:55.134Z,33.20
2018-11-06T16:38:22.811Z,31.93
2018-11-06T16:40:50.276Z,31.50
2018-11-06T16:43:17.767Z,34.35
2018-11-06T16:45:45.640Z,38.55
2018-11-06T16:48:13.601Z,37.98
2018-11-06T16:50:41.368Z,33.83
2018-11-06T16:53:17.365Z,37.05
2018-11-06T16:55:46.216Z,36.80
2018-11-06T16:58:13.934Z,33.65
2018-11-06T17:00:42.041Z,36.75
2018-11-06T17:03:09.630Z,34.67
2018-11-06T17:05:37.278Z,37.03
2018-11-06T17:08:05.076Z,34.67
2018-11-06T17:10:33.147Z,36.77
2018-11-06T17:13:00.854Z,36.90
2018-11-06T17:15:28.462Z,40.98
2018-11-06T17:17:56.181Z,37.78
2018-11-06T17:20:24.165Z,39.27
2018-11-06T17:22:52.077Z,38.05
2018-11-06T17:25:21.386Z,41.00
2018-11-06T17:27:48.945Z,39.80
2018-11-06T17:30:17.611Z,39.92
2018-11-06T17:32:49.774Z,48.75
2018-11-06T17:35:18.646Z,42.25
2018-11-06T17:37:48.595Z,44.83
2018-11-06T17:40:17.553Z,43.80
2018-11-06T17:42:45.233Z,44.35
2018-11-06T17:45:14.105Z,42.40
2018-11-06T17:47:42.316Z,41.18
2018-11-06T17:50:11.172Z,39.63
2018-11-06T17:52:38.884Z,39.13
2018-11-06T17:55:07.114Z,37.17
2018-11-06T17:57:36.472Z,40.78
2018-11-06T18:00:05.051Z,41.63
2018-11-06T18:02:33.048Z,38.58
2018-11-06T18:05:06.635Z,37.35
2018-11-06T18:07:33.989Z,38.85
2018-11-06T18:10:01.412Z,38.58
2018-11-06T18:12:28.808Z,38.73
2018-11-06T18:14:56.116Z,38.67
2018-11-06T18:17:23.650Z,41.33
2018-11-06T18:19:50.989Z,36.68
2018-11-06T18:22:18.341Z,37.55
2018-11-06T18:24:45.738Z,42.80
2018-11-06T18:27:13.018Z,42.70
2018-11-06T18:29:40.338Z,40.28
2018-11-06T18:32:07.756Z,45.85
2018-11-06T18:34:35.119Z,43.00
2018-11-06T18:37:02.829Z,42.62
2018-11-06T18:39:30.208Z,40.55
2018-11-06T18:41:57.521Z,40.33
2018-11-06T18:44:24.839Z,44.67
2018-11-06T18:46:52.194Z,40.95
2018-11-06T18:49:19.524Z,41.37
2018-11-06T18:51:46.826Z,43.80
2018-11-06T18:54:14.308Z,42.08
2018-11-06T18:56:41.627Z,44.80
2018-11-06T18:59:08.946Z,41.55
2018-11-06T19:01:36.332Z,42.65
2018-11-06T19:04:03.699Z,43.08
2018-11-06T19:06:31.034Z,43.83
2018-11-06T19:08:58.372Z,44.00
2018-11-06T19:11:25.770Z,43.60
2018-11-06T19:13:53.099Z,45.60
2018-11-06T19:16:20.461Z,43.15
2018-11-06T19:18:47.789Z,44.35
2018-11-06T19:21:15.087Z,46.00
2018-11-06T19:23:45.580Z,44.50
2018-11-06T19:26:13.495Z,41.70
2018-11-06T19:28:41.733Z,44.13
2018-11-06T19:31:09.463Z,45.70
2018-11-06T19:33:36.999Z,44.95
2018-11-06T19:36:04.418Z,43.70
2018-11-06T19:38:32.086Z,44.50
2018-11-06T19:40:59.961Z,44.25
2018-11-06T19:43:27.843Z,41.33
2018-11-06T19:45:55.281Z,44.38
2018-11-06T19:48:22.806Z,43.73
2018-11-06T19:50:50.719Z,43.40
2018-11-06T19:53:19.224Z,44.05
2018-11-06T19:55:46.828Z,45.08
2018-11-06T19:58:17.738Z,44.13
2018-11-06T20:00:49.123Z,42.95
2018-11-06T20:03:18.422Z,43.90
2018-11-06T20:05:46.132Z,40.95
2018-11-06T20:08:14.390Z,43.98
2018-11-06T20:10:41.791Z,44.93
2018-11-06T20:13:10.474Z,41.37
2018-11-06T20:15:39.759Z,42.00
2018-11-06T20:18:08.930Z,41.70
2018-11-06T20:20:37.892Z,43.65
2018-11-06T20:23:07.418Z,42.85
2018-11-06T20:25:34.864Z,42.08
2018-11-06T20:28:03.151Z,42.65
2018-11-06T20:30:34.083Z,43.60
2018-11-06T20:33:02.543Z,38.35
2018-11-06T20:35:31.202Z,43.58
2018-11-06T20:37:58.556Z,44.90
2018-11-06T20:40:26.811Z,41.20
2018-11-06T20:42:54.297Z,42.83
2018-11-06T20:45:22.498Z,41.30
2018-11-06T20:47:50.659Z,37.55
2018-11-06T20:50:18.898Z,43.30
2018-11-06T20:52:46.993Z,39.55
2018-11-06T20:55:17.916Z,42.30
2018-11-06T20:57:46.349Z,45.85
2018-11-06T21:00:24.117Z,44.75
2018-11-06T21:02:54.465Z,45.65
2018-11-06T21:05:21.795Z,45.50
2018-11-06T21:07:49.294Z,42.27
2018-11-06T21:10:17.930Z,43.68
2018-11-06T21:12:45.541Z,43.55
2018-11-06T21:15:13.220Z,40.12
2018-11-06T21:17:40.650Z,43.92
2018-11-06T21:20:08.770Z,46.13
2018-11-06T21:22:36.201Z,43.68
2018-11-06T21:25:05.205Z,39.50
2018-11-06T21:27:35.106Z,43.08
2018-11-06T21:30:02.692Z,40.50
2018-11-06T21:32:30.802Z,44.65
2018-11-06T21:35:00.835Z,41.68
2018-11-06T21:37:28.566Z,42.13
2018-11-06T21:39:56.540Z,43.13
2018-11-06T21:42:24.673Z,42.60
2018-11-06T21:44:52.516Z,44.48
2018-11-06T21:47:20.123Z,45.92
2018-11-06T21:49:48.261Z,41.45
2018-11-06T21:52:16.126Z,45.60
2018-11-06T21:54:44.400Z,44.98
2018-11-06T21:57:11.721Z,46.18
2018-11-06T21:59:39.230Z,43.85
2018-11-06T22:02:06.854Z,43.80
2018-11-06T22:04:34.955Z,46.83
2018-11-06T22:07:02.261Z,44.45
2018-11-06T22:09:29.609Z,41.25
2018-11-06T22:11:56.959Z,42.27
2018-11-06T22:14:24.285Z,42.58
2018-11-06T22:16:51.606Z,41.88
2018-11-06T22:19:18.930Z,41.92
2018-11-06T22:21:46.326Z,45.12
2018-11-06T22:24:13.622Z,42.33
2018-11-06T22:26:40.994Z,46.25
2018-11-06T22:29:08.308Z,44.38
2018-11-06T22:31:35.685Z,46.53
2018-11-06T22:34:03.019Z,47.62
2018-11-06T22:36:30.311Z,46.92
2018-11-06T22:38:57.622Z,48.08
2018-11-06T22:41:24.962Z,46.05
2018-11-06T22:43:52.338Z,43.65
2018-11-06T22:46:19.621Z,46.98
2018-11-06T22:48:46.928Z,48.08
2018-11-06T22:51:14.245Z,46.25
2018-11-06T22:53:41.632Z,45.67
2018-11-06T22:56:08.942Z,44.63
2018-11-06T22:58:36.251Z,45.67
2018-11-06T23:01:09.002Z,47.45
2018-11-06T23:03:36.325Z,43.73
2018-11-06T23:06:03.797Z,43.28
2018-11-06T23:08:31.066Z,48.87
2018-11-06T23:10:58.403Z,45.70
2018-11-06T23:13:25.735Z,47.90
2018-11-06T23:15:53.121Z,49.83
2018-11-06T23:18:20.478Z,46.40
2018-11-06T23:20:47.789Z,46.53
2018-11-06T23:23:15.104Z,46.40
2018-11-06T23:25:42.565Z,48.50
2018-11-06T23:28:09.896Z,52.55
2018-11-06T23:30:37.222Z,47.45
2018-11-06T23:33:04.989Z,47.00
2018-11-06T23:35:32.387Z,45.43
2018-11-06T23:37:59.678Z,49.93
2018-11-06T23:40:26.996Z,49.65
2018-11-06T23:42:54.342Z,49.88
2018-11-06T23:45:21.686Z,46.40
2018-11-06T23:47:49.012Z,47.55
2018-11-06T23:50:16.334Z,49.03
2018-11-06T23:52:43.658Z,47.17
2018-11-06T23:55:11.314Z,50.08
2018-11-06T23:57:38.759Z,46.80
